createdAt,value
2023-01-23T00:01:19.559Z,8.52
2023-01-23T00:03:46.750Z,7.35
2023-01-23T00:06:15.664Z,7.78
2023-01-23T00:08:44.404Z,8.52
2023-01-23T00:11:14.845Z,8.45
2023-01-23T00:13:41.696Z,8.35
2023-01-23T00:16:12.118Z,7.75
2023-01-23T00:18:39.921Z,7.38
2023-01-23T00:21:16.355Z,7.28
2023-01-23T00:23:45.319Z,4.90
2023-01-23T00:26:18.220Z,6.90
2023-01-23T00:28:46.584Z,7.95
2023-01-23T00:31:16.603Z,7.07
2023-01-23T00:33:44.769Z,6.57
2023-01-23T00:36:13.825Z,7.93
2023-01-23T00:38:41.260Z,8.70
2023-01-23T00:41:08.474Z,7.60
2023-01-23T00:43:35.431Z,7.32
2023-01-23T00:46:02.418Z,8.07
2023-01-23T00:48:29.515Z,6.90
2023-01-23T00:50:56.427Z,7.30
2023-01-23T00:53:23.610Z,7.63
2023-01-23T00:55:50.771Z,7.65
2023-01-23T00:58:18.792Z,7.20
2023-01-23T01:00:45.974Z,6.70
2023-01-23T01:03:13.196Z,6.75
2023-01-23T01:05:41.850Z,7.70
2023-01-23T01:08:08.776Z,6.10
2023-01-23T01:10:36.057Z,6.85
2023-01-23T01:13:05.268Z,7.15
2023-01-23T01:15:32.634Z,8.07
2023-01-23T01:17:59.600Z,6.68
2023-01-23T01:20:28.128Z,7.50
2023-01-23T01:22:57.680Z,7.22
2023-01-23T01:25:24.893Z,7.55
2023-01-23T01:27:56.064Z,6.68
2023-01-23T01:30:23.268Z,6.90
2023-01-23T01:32:50.175Z,6.47
2023-01-23T01:35:17.126Z,7.53
2023-01-23T01:37:44.031Z,7.75
2023-01-23T01:40:19.756Z,7.50
2023-01-23T01:43:00.680Z,7.55
2023-01-23T01:46:05.265Z,8.27
2023-01-23T01:48:50.255Z,7.65
2023-01-23T01:51:38.859Z,7.50
2023-01-23T01:54:12.133Z,7.88
2023-01-23T01:56:44.805Z,6.88
2023-01-23T01:59:13.274Z,7.47
2023-01-23T02:01:43.039Z,8.65
2023-01-23T02:04:10.159Z,7.15
2023-01-23T02:06:37.222Z,7.47
2023-01-23T02:09:14.427Z,8.43
2023-01-23T02:11:41.734Z,8.52
2023-01-23T02:14:08.838Z,7.63
2023-01-23T02:16:41.039Z,7.28
2023-01-23T02:19:36.262Z,7.72
2023-01-23T02:22:26.220Z,7.32
2023-01-23T02:25:09.215Z,7.40
2023-01-23T02:27:36.099Z,7.43
2023-01-23T02:30:04.092Z,8.23
2023-01-23T02:32:32.443Z,8.32
2023-01-23T02:35:08.483Z,7.45
2023-01-23T02:37:38.451Z,9.73
2023-01-23T02:40:06.522Z,8.63
2023-01-23T02:42:35.701Z,8.75
2023-01-23T02:45:06.860Z,9.00
2023-01-23T02:47:34.745Z,10.38
2023-01-23T02:50:01.734Z,9.27
2023-01-23T02:52:30.636Z,8.63
2023-01-23T02:54:57.596Z,8.80
2023-01-23T02:57:25.373Z,8.65
2023-01-23T03:00:11.047Z,9.13
2023-01-23T03:02:38.525Z,8.80
2023-01-23T03:05:06.091Z,10.30
2023-01-23T03:07:32.965Z,11.00
2023-01-23T03:09:59.835Z,9.02
2023-01-23T03:12:26.772Z,10.30
2023-01-23T03:14:55.046Z,9.68
2023-01-23T03:17:23.035Z,9.73
2023-01-23T03:19:50.007Z,10.05
2023-01-23T03:22:17.293Z,10.05
2023-01-23T03:24:44.164Z,9.90
2023-01-23T03:27:11.120Z,9.80
2023-01-23T03:30:00.865Z,9.23
2023-01-23T03:32:29.455Z,9.02
2023-01-23T03:34:57.540Z,9.32
2023-01-23T03:37:24.489Z,9.23
2023-01-23T03:40:10.330Z,8.77
2023-01-23T03:45:07.243Z,8.10
2023-01-23T03:47:36.278Z,8.40
2023-01-23T03:50:03.763Z,7.97
2023-01-23T03:52:38.016Z,8.13
2023-01-23T03:55:06.092Z,8.43
2023-01-23T03:57:33.755Z,7.40
2023-01-23T04:00:09.981Z,9.50
2023-01-23T04:02:48.799Z,9.13
2023-01-23T04:05:15.781Z,10.23
2023-01-23T04:07:43.414Z,9.02
2023-01-23T04:10:13.039Z,8.75
2023-01-23T04:12:43.341Z,9.73
2023-01-23T04:15:11.620Z,10.57
2023-01-23T04:17:41.970Z,10.63
2023-01-23T04:20:10.446Z,9.80
2023-01-23T04:22:37.604Z,8.90
2023-01-23T04:25:06.767Z,8.82
2023-01-23T04:27:33.822Z,8.90
2023-01-23T04:30:01.603Z,9.52
2023-01-23T04:32:28.562Z,8.75
2023-01-23T04:34:55.448Z,8.07
2023-01-23T04:37:22.581Z,8.32
2023-01-23T04:39:50.403Z,8.98
2023-01-23T04:42:18.968Z,8.18
2023-01-23T04:45:02.180Z,9.93
2023-01-23T04:47:55.104Z,10.82
2023-01-23T04:50:22.769Z,9.45
2023-01-23T04:52:49.716Z,10.13
2023-01-23T04:55:16.699Z,10.23
2023-01-23T04:57:44.423Z,10.85
2023-01-23T05:00:22.136Z,9.98
2023-01-23T05:02:50.610Z,9.57
2023-01-23T05:05:20.970Z,11.20
2023-01-23T05:07:51.645Z,10.43
2023-01-23T05:10:18.952Z,10.18
2023-01-23T05:12:47.377Z,9.88
2023-01-23T05:15:14.327Z,9.55
2023-01-23T05:17:44.364Z,10.40
2023-01-23T05:20:12.172Z,10.98
2023-01-23T05:22:52.514Z,11.88
2023-01-23T05:25:24.650Z,10.25
2023-01-23T05:27:52.489Z,8.60
2023-01-23T05:30:22.558Z,7.95
2023-01-23T05:32:52.695Z,8.23
2023-01-23T05:35:21.788Z,9.43
2023-01-23T05:37:52.648Z,9.68
2023-01-23T05:40:23.440Z,9.80
2023-01-23T05:48:29.085Z,9.02
2023-01-23T05:50:56.341Z,8.70
2023-01-23T05:53:23.570Z,10.25
2023-01-23T05:55:50.538Z,9.93
2023-01-23T05:58:17.831Z,9.75
2023-01-23T06:01:17.110Z,9.05
2023-01-23T06:04:02.898Z,9.85
2023-01-23T06:06:50.044Z,9.82
2023-01-23T06:09:16.973Z,11.27
2023-01-23T06:11:43.893Z,7.95
2023-01-23T06:14:10.928Z,8.25
2023-01-23T06:16:37.879Z,7.25
2023-01-23T06:19:05.462Z,7.15
2023-01-23T06:21:35.882Z,7.97
2023-01-23T06:24:03.501Z,10.48
2023-01-23T06:26:32.787Z,8.98
2023-01-23T06:28:59.724Z,8.25
2023-01-23T06:31:26.717Z,8.80
2023-01-23T06:33:57.571Z,8.23
2023-01-23T06:36:29.972Z,7.13
2023-01-23T06:38:57.024Z,7.53
2023-01-23T06:41:30.102Z,8.50
2023-01-23T06:44:01.556Z,7.95
2023-01-23T06:46:29.048Z,8.85
2023-01-23T06:48:56.478Z,7.90
2023-01-23T06:51:23.893Z,7.60
2023-01-23T06:53:51.077Z,7.95
2023-01-23T06:56:18.400Z,8.25
2023-01-23T06:58:46.791Z,9.02
2023-01-23T07:01:33.291Z,9.05
2023-01-23T07:06:48.244Z,7.00
2023-01-23T07:09:17.012Z,8.25
2023-01-23T07:11:50.719Z,9.43
2023-01-23T07:14:17.687Z,7.15
2023-01-23T07:16:47.510Z,8.20
2023-01-23T07:19:15.886Z,7.82
2023-01-23T07:21:43.438Z,7.07
2023-01-23T07:24:10.305Z,7.75
2023-01-23T07:26:37.411Z,7.30
2023-01-23T07:29:05.957Z,8.02
2023-01-23T07:31:32.927Z,8.52
2023-01-23T07:33:59.859Z,8.82
2023-01-23T07:36:26.887Z,7.75
2023-01-23T07:38:53.890Z,7.45
2023-01-23T07:41:20.808Z,7.32
2023-01-23T07:43:47.773Z,7.70
2023-01-23T07:46:15.102Z,7.97
2023-01-23T07:48:42.231Z,7.70
2023-01-23T07:51:09.269Z,8.68
2023-01-23T07:53:36.207Z,7.93
2023-01-23T07:56:06.615Z,8.05
2023-01-23T07:58:33.647Z,7.63
2023-01-23T08:01:06.844Z,7.60
2023-01-23T08:03:33.777Z,7.30
2023-01-23T08:06:00.705Z,6.97
2023-01-23T08:08:27.597Z,7.30
2023-01-23T08:10:54.542Z,7.30
2023-01-23T08:13:21.512Z,7.50
2023-01-23T08:15:48.452Z,7.90
2023-01-23T08:18:15.348Z,8.10
2023-01-23T08:20:42.203Z,8.73
2023-01-23T08:23:09.168Z,8.00
2023-01-23T08:25:38.371Z,8.50
2023-01-23T08:28:05.349Z,7.57
2023-01-23T08:30:32.377Z,8.25
2023-01-23T08:33:00.159Z,7.97
2023-01-23T08:35:27.083Z,8.93
2023-01-23T08:37:54.139Z,8.27
2023-01-23T08:40:21.641Z,8.65
2023-01-23T08:42:48.729Z,8.52
2023-01-23T08:45:15.691Z,9.18
2023-01-23T08:47:42.806Z,7.70
2023-01-23T08:50:10.920Z,8.65
2023-01-23T08:52:38.021Z,7.47
2023-01-23T08:55:05.341Z,7.53
2023-01-23T08:57:32.373Z,7.70
2023-01-23T08:59:59.384Z,7.57
2023-01-23T09:02:26.539Z,6.65
2023-01-23T09:04:53.471Z,7.60
2023-01-23T09:07:20.408Z,7.10
2023-01-23T09:09:47.505Z,7.97
2023-01-23T09:12:14.412Z,7.30
2023-01-23T09:14:41.548Z,7.70
2023-01-23T09:17:08.540Z,7.68
2023-01-23T09:19:35.579Z,8.18
2023-01-23T09:22:02.912Z,8.02
2023-01-23T09:24:29.785Z,7.50
2023-01-23T09:26:56.661Z,6.00
2023-01-23T09:29:23.606Z,8.35
2023-01-23T09:31:50.554Z,7.07
2023-01-23T09:34:17.552Z,8.32
2023-01-23T09:36:44.703Z,7.90
2023-01-23T09:39:12.647Z,7.18
2023-01-23T09:41:41.280Z,8.25
2023-01-23T09:44:16.537Z,8.63
2023-01-23T09:49:48.161Z,8.27
2023-01-23T09:52:28.967Z,8.10
2023-01-23T09:55:01.559Z,6.40
2023-01-23T09:57:39.119Z,8.15
2023-01-23T10:00:16.208Z,6.78
2023-01-23T10:02:45.029Z,7.53
2023-01-23T10:05:17.222Z,7.85
2023-01-23T10:08:25.825Z,7.10
2023-01-23T10:11:04.530Z,8.90
2023-01-23T10:13:52.863Z,8.18
2023-01-23T10:16:44.993Z,8.73
2023-01-23T10:19:50.210Z,8.90
2023-01-23T10:22:49.083Z,9.10
2023-01-23T10:25:24.896Z,9.43
2023-01-23T10:27:55.777Z,10.02
2023-01-23T10:30:29.974Z,8.02
2023-01-23T10:33:01.168Z,8.48
2023-01-23T10:35:50.873Z,8.00
2023-01-23T10:38:20.813Z,8.82
2023-01-23T10:41:07.380Z,8.30
2023-01-23T10:43:35.536Z,8.27
2023-01-23T10:46:13.267Z,7.82
2023-01-23T10:48:41.964Z,8.55
2023-01-23T10:51:33.194Z,8.40
2023-01-23T10:54:11.349Z,8.00
2023-01-23T10:56:47.979Z,8.07
2023-01-23T10:59:26.237Z,7.72
2023-01-23T11:02:23.933Z,9.13
2023-01-23T11:04:54.543Z,8.10
2023-01-23T11:07:24.483Z,9.20
2023-01-23T11:10:00.779Z,8.95
2023-01-23T11:12:27.812Z,9.23
2023-01-23T11:15:28.902Z,10.98
2023-01-23T11:17:58.841Z,10.02
2023-01-23T11:20:34.759Z,9.05
2023-01-23T11:23:21.943Z,11.27
2023-01-23T11:25:51.111Z,10.73
2023-01-23T11:28:34.987Z,13.32
2023-01-23T11:31:19.664Z,11.73
2023-01-23T11:33:59.434Z,11.30
2023-01-23T11:36:34.239Z,11.63
2023-01-23T11:39:13.400Z,13.80
2023-01-23T11:41:40.491Z,13.13
2023-01-23T11:44:18.725Z,11.80
2023-01-23T11:47:14.027Z,13.18
2023-01-23T11:50:04.524Z,12.45
2023-01-23T11:52:34.804Z,10.55
2023-01-23T11:55:20.651Z,11.23
2023-01-23T11:58:06.204Z,9.15
2023-01-23T12:01:06.971Z,11.00
2023-01-23T12:03:59.686Z,9.13
2023-01-23T12:06:40.440Z,10.82
2023-01-23T12:09:18.845Z,11.45
2023-01-23T12:12:23.071Z,14.50
2023-01-23T12:15:23.185Z,12.80
2023-01-23T12:18:06.536Z,13.95
2023-01-23T12:20:47.550Z,14.85
2023-01-23T12:23:26.541Z,15.48
2023-01-23T12:26:16.727Z,13.73
2023-01-23T12:29:15.675Z,13.52
2023-01-23T12:32:01.304Z,11.00
2023-01-23T12:34:39.282Z,12.35
2023-01-23T12:37:30.667Z,11.05
2023-01-23T12:40:25.561Z,11.60
2023-01-23T12:43:14.309Z,11.07
2023-01-23T12:45:49.302Z,11.25
2023-01-23T12:48:36.847Z,10.95
2023-01-23T12:51:12.932Z,13.15
2023-01-23T12:53:41.982Z,12.10
2023-01-23T12:56:24.669Z,13.07
2023-01-23T12:59:18.084Z,11.77
2023-01-23T13:02:18.918Z,13.73
2023-01-23T13:05:04.117Z,13.50
2023-01-23T13:08:03.629Z,13.57
2023-01-23T13:11:37.167Z,14.75
2023-01-23T13:14:19.358Z,15.20
2023-01-23T13:16:49.606Z,15.85
2023-01-23T13:19:44.326Z,16.05
2023-01-23T13:22:32.560Z,16.08
2023-01-23T13:25:17.305Z,16.10
2023-01-23T13:28:00.974Z,19.60
2023-01-23T13:30:32.009Z,18.73
2023-01-23T13:33:06.849Z,16.42
2023-01-23T13:35:39.873Z,19.27
2023-01-23T13:38:21.778Z,17.30
2023-01-23T13:41:21.114Z,19.35
2023-01-23T13:43:51.087Z,17.33
2023-01-23T14:21:52.439Z,14.40
2023-01-23T14:24:27.285Z,14.32
2023-01-23T14:27:07.272Z,13.85
2023-01-23T14:29:35.767Z,13.57
2023-01-23T14:32:03.460Z,13.57
2023-01-23T14:34:30.432Z,14.82
2023-01-23T14:37:00.238Z,14.85
2023-01-23T14:39:29.570Z,15.15
2023-01-23T14:42:02.118Z,14.18
2023-01-23T14:44:47.176Z,15.88
2023-01-23T14:47:34.375Z,15.13
2023-01-23T14:50:02.623Z,15.50
2023-01-23T14:52:31.418Z,15.70
2023-01-23T14:55:07.235Z,17.42
2023-01-23T14:57:35.931Z,17.35
2023-01-23T15:00:04.472Z,15.63
2023-01-23T15:02:31.533Z,16.42
2023-01-23T15:05:13.769Z,18.13
2023-01-23T15:08:16.367Z,16.23
2023-01-23T15:10:43.263Z,15.00
2023-01-23T15:13:21.581Z,16.05
2023-01-23T15:16:13.884Z,17.92
2023-01-23T15:18:52.551Z,16.92
2023-01-23T15:21:31.255Z,18.60
2023-01-23T15:24:01.227Z,18.73
2023-01-23T15:26:37.781Z,17.63
2023-01-23T15:29:26.129Z,18.67
2023-01-23T15:31:55.127Z,16.42
2023-01-23T15:34:31.375Z,14.93
2023-01-23T15:37:13.341Z,13.57
2023-01-23T15:39:51.328Z,14.15
2023-01-23T15:42:18.155Z,12.75
2023-01-23T15:44:45.156Z,15.57
2023-01-23T15:47:12.130Z,14.10
2023-01-23T15:49:40.135Z,14.32
2023-01-23T15:52:30.725Z,14.07
2023-01-23T15:55:01.546Z,14.70
2023-01-23T15:57:28.633Z,13.45
2023-01-23T15:59:55.715Z,15.27
2023-01-23T16:02:31.145Z,14.75
2023-01-23T16:04:58.828Z,14.50
2023-01-23T16:07:34.505Z,15.25
2023-01-23T16:10:06.195Z,15.07
2023-01-23T16:12:35.506Z,14.32
2023-01-23T16:15:02.502Z,13.73
2023-01-23T16:17:29.571Z,13.45
2023-01-23T16:19:56.595Z,13.38
2023-01-23T16:22:29.505Z,13.63
2023-01-23T16:24:57.908Z,12.65
2023-01-23T16:27:27.942Z,14.43
2023-01-23T16:29:56.417Z,12.63
2023-01-23T16:32:23.730Z,12.60
2023-01-23T16:34:50.900Z,14.02
2023-01-23T16:37:19.176Z,13.65
2023-01-23T16:39:47.916Z,13.70
2023-01-23T16:42:22.060Z,13.85
2023-01-23T16:44:50.365Z,13.80
2023-01-23T16:47:17.513Z,14.20
2023-01-23T16:49:51.884Z,15.98
2023-01-23T16:52:20.910Z,15.55
2023-01-23T16:54:47.869Z,15.63
2023-01-23T16:57:20.358Z,15.35
2023-01-23T16:59:50.014Z,16.48
2023-01-23T17:02:22.521Z,15.43
2023-01-23T17:04:49.987Z,15.82
2023-01-23T17:07:18.711Z,15.75
2023-01-23T17:09:46.351Z,15.50
2023-01-23T17:12:21.192Z,15.18
2023-01-23T17:14:49.804Z,15.93
2023-01-23T17:17:25.860Z,15.73
2023-01-23T17:19:53.277Z,14.10
2023-01-23T17:22:24.540Z,14.90
2023-01-23T17:24:51.488Z,15.75
2023-01-23T17:27:18.533Z,14.45
2023-01-23T17:29:45.433Z,13.32
2023-01-23T17:32:27.354Z,13.55
2023-01-23T17:34:54.776Z,11.77
2023-01-23T17:37:23.638Z,11.75
2023-01-23T17:39:50.678Z,10.57
2023-01-23T17:42:17.826Z,9.27
2023-01-23T17:44:44.675Z,10.25
2023-01-23T17:47:12.851Z,9.82
2023-01-23T17:49:40.454Z,10.43
2023-01-23T17:52:11.805Z,11.05
2023-01-23T17:54:39.156Z,10.18
2023-01-23T17:57:06.102Z,8.95
2023-01-23T17:59:33.031Z,8.35
2023-01-23T18:02:00.075Z,10.30
2023-01-23T18:04:26.954Z,9.50
2023-01-23T18:06:54.023Z,9.68
2023-01-23T18:09:21.505Z,10.13
2023-01-23T18:11:52.520Z,10.43
2023-01-23T18:14:44.233Z,9.55
2023-01-23T18:17:32.223Z,9.60
2023-01-23T18:19:59.347Z,9.07
2023-01-23T18:22:26.725Z,8.75
2023-01-23T18:24:54.289Z,8.82
2023-01-23T18:27:26.150Z,8.95
2023-01-23T18:30:22.546Z,9.35
2023-01-23T18:33:19.591Z,8.73
2023-01-23T18:35:46.496Z,10.10
2023-01-23T18:38:16.542Z,8.07
2023-01-23T18:41:21.935Z,9.52
2023-01-23T18:43:56.296Z,9.75
2023-01-23T18:46:28.069Z,9.23
2023-01-23T18:48:55.492Z,8.85
2023-01-23T18:51:34.566Z,8.00
2023-01-23T18:54:10.570Z,8.23
2023-01-23T18:56:43.296Z,8.38
2023-01-23T18:59:37.619Z,8.38
2023-01-23T19:02:23.179Z,8.63
2023-01-23T19:05:17.802Z,8.45
2023-01-23T19:07:46.557Z,8.88
2023-01-23T19:10:40.179Z,8.07
2023-01-23T19:13:43.678Z,7.57
2023-01-23T19:16:32.555Z,7.43
2023-01-23T19:19:19.839Z,7.50
2023-01-23T19:21:47.940Z,7.40
2023-01-23T19:24:19.224Z,8.05
2023-01-23T19:26:46.786Z,9.02
2023-01-23T19:29:21.868Z,7.90
2023-01-23T19:32:06.560Z,8.30
2023-01-23T19:34:34.603Z,7.55
2023-01-23T19:37:01.887Z,7.25
2023-01-23T19:39:29.521Z,8.57
2023-01-23T19:41:58.680Z,9.05
2023-01-23T19:44:29.041Z,7.65
2023-01-23T19:46:56.315Z,8.60
2023-01-23T19:49:23.363Z,8.27
2023-01-23T19:51:50.317Z,6.65
2023-01-23T19:54:17.503Z,5.93
2023-01-23T19:56:44.604Z,6.95
2023-01-23T19:59:11.725Z,6.65
2023-01-23T20:01:48.592Z,7.63
2023-01-23T20:04:20.978Z,6.38
2023-01-23T20:06:54.188Z,6.20
2023-01-23T20:09:21.700Z,6.28
2023-01-23T20:11:49.182Z,6.53
2023-01-23T20:14:16.294Z,6.07
2023-01-23T20:16:43.666Z,6.60
2023-01-23T20:19:15.266Z,6.30
2023-01-23T20:21:42.543Z,6.00
2023-01-23T20:24:09.558Z,7.00
2023-01-23T20:26:37.205Z,6.15
2023-01-23T20:29:05.355Z,5.97
2023-01-23T20:31:33.145Z,6.50
2023-01-23T20:34:00.254Z,6.50
2023-01-23T20:36:27.820Z,6.63
2023-01-23T20:38:56.725Z,7.50
2023-01-23T20:41:23.849Z,7.22
2023-01-23T20:43:50.804Z,7.35
2023-01-23T20:46:19.434Z,6.88
2023-01-23T20:48:46.825Z,6.40
2023-01-23T20:51:18.041Z,7.00
2023-01-23T20:53:46.000Z,6.13
2023-01-23T20:56:17.525Z,7.00
2023-01-23T20:59:05.824Z,6.68
2023-01-23T21:01:57.329Z,7.03
2023-01-23T21:04:30.217Z,6.47
2023-01-23T21:06:57.967Z,7.13
2023-01-23T21:09:24.917Z,6.50
2023-01-23T21:11:53.469Z,6.38
2023-01-23T21:14:21.813Z,7.30
2023-01-23T21:16:49.203Z,7.07
2023-01-23T21:19:16.648Z,7.72
2023-01-23T21:21:43.554Z,7.05
2023-01-23T21:24:10.915Z,8.23
2023-01-23T21:26:37.856Z,7.00
2023-01-23T21:29:05.601Z,8.70
2023-01-23T21:31:34.807Z,8.00
2023-01-23T21:34:04.525Z,6.55
2023-01-23T21:36:31.849Z,7.40
2023-01-23T21:38:59.448Z,7.68
2023-01-23T21:41:26.444Z,7.60
2023-01-23T21:43:53.390Z,8.02
2023-01-23T21:46:20.493Z,8.00
2023-01-23T21:48:47.436Z,7.95
2023-01-23T21:51:20.163Z,7.28
2023-01-23T21:53:49.343Z,8.05
2023-01-23T21:56:20.023Z,7.40
2023-01-23T21:58:47.342Z,8.20
2023-01-23T22:01:57.832Z,8.93
2023-01-23T22:04:25.777Z,6.65
2023-01-23T22:06:55.431Z,8.48
2023-01-23T22:09:24.974Z,7.82
2023-01-23T22:11:52.360Z,9.85
2023-01-23T22:14:19.428Z,7.97
2023-01-23T22:16:49.729Z,8.55
2023-01-23T22:19:25.609Z,8.90
2023-01-23T22:21:57.255Z,8.77
2023-01-23T22:24:24.487Z,8.68
2023-01-23T22:26:51.887Z,7.95
2023-01-23T22:29:18.830Z,9.10
2023-01-23T22:31:45.955Z,8.82
2023-01-23T22:34:13.000Z,9.77
2023-01-23T22:36:40.288Z,10.73
2023-01-23T22:39:09.918Z,8.82
2023-01-23T22:41:36.969Z,8.27
2023-01-23T22:44:03.940Z,8.88
2023-01-23T22:46:32.386Z,8.52
2023-01-23T22:48:59.369Z,8.70
2023-01-23T22:51:28.060Z,9.38
2023-01-23T22:53:56.620Z,9.07
2023-01-23T22:56:24.466Z,9.07
2023-01-23T22:58:53.245Z,8.90
2023-01-23T23:01:23.119Z,7.95
2023-01-23T23:03:51.176Z,8.85
2023-01-23T23:06:19.013Z,9.02
2023-01-23T23:08:47.856Z,9.10
2023-01-23T23:11:20.788Z,8.38
2023-01-23T23:13:48.632Z,9.60
2023-01-23T23:16:27.654Z,9.95
2023-01-23T23:18:56.165Z,7.82
2023-01-23T23:21:25.748Z,8.10
2023-01-23T23:23:57.299Z,8.55
2023-01-23T23:26:26.807Z,8.80
2023-01-23T23:28:55.052Z,9.80
2023-01-23T23:31:22.369Z,8.45
2023-01-23T23:33:49.885Z,8.20
2023-01-23T23:36:17.606Z,9.10
2023-01-23T23:38:44.556Z,9.18
2023-01-23T23:41:16.277Z,9.73
2023-01-23T23:43:43.564Z,7.22
2023-01-23T23:46:12.947Z,9.88
2023-01-23T23:48:40.504Z,8.63
2023-01-23T23:51:09.671Z,9.13
2023-01-23T23:53:37.044Z,9.40
2023-01-23T23:56:05.347Z,7.85
2023-01-23T23:58:34.841Z,9.95
